Time;durP1;ratioP1;P1;durP2;ratioP2;P2;SDS_P1;SDS_P2;PMS_P1;PMS_P2;Temp;Humidity;BMP_temperature;BMP_pressure;BME280_temperature;BME280_humidity;BME280_pressure;Samples;Min_cycle;Max_cycle;Signal;HPM_P1;HPM_P2
2023/04/18 00:02:09;;;;;;;4.13;1.43;;;13.30;46.30;;;;;;5033776;28;20209;-69
2023/04/18 00:04:35;;;;;;;4.00;1.30;;;13.20;47.60;;;;;;5030740;28;20186;-70
2023/04/18 00:07:00;;;;;;;4.57;1.70;;;13.30;47.50;;;;;;5034227;28;20773;-70
2023/04/18 00:09:26;;;;;;;4.20;1.40;;;13.30;47.20;;;;;;5033517;28;20169;-70
2023/04/18 00:11:52;;;;;;;4.60;1.60;;;13.20;46.50;;;;;;5031806;28;20207;-69
2023/04/18 00:14:19;;;;;;;4.30;1.50;;;13.30;46.40;;;;;;5029751;28;20195;-70
2023/04/18 00:16:45;;;;;;;4.30;1.47;;;13.30;46.10;;;;;;5033976;28;20279;-70
2023/04/18 00:19:13;;;;;;;4.57;1.83;;;13.40;46.30;;;;;;5083681;22;20496;-69
2023/04/18 00:21:43;;;;;;;4.40;1.60;;;13.40;46.00;;;;;;5013111;28;20464;-69
2023/04/18 00:24:09;;;;;;;4.20;1.40;;;13.30;45.80;;;;;;5012473;28;20479;-69
2023/04/18 00:26:35;;;;;;;4.67;1.33;;;13.30;46.50;;;;;;5013864;28;20419;-69
2023/04/18 00:29:02;;;;;;;4.97;1.93;;;13.30;46.10;;;;;;5012615;28;20509;-69
2023/04/18 00:31:27;;;;;;;4.40;1.50;;;13.30;46.80;;;;;;5013751;28;20204;-69
2023/04/18 00:33:53;;;;;;;5.07;1.73;;;13.30;46.80;;;;;;5012742;28;20436;-69
2023/04/18 00:36:18;;;;;;;4.30;1.60;;;13.20;47.10;;;;;;5011670;28;20660;-69
2023/04/18 00:38:44;;;;;;;4.13;1.40;;;13.40;46.90;;;;;;5013521;28;20276;-69
2023/04/18 00:41:10;;;;;;;4.30;1.30;;;13.40;46.00;;;;;;5012346;28;20227;-69
2023/04/18 00:43:36;;;;;;;4.60;1.67;;;13.30;45.80;;;;;;5011961;28;20178;-69
2023/04/18 00:46:01;;;;;;;4.30;1.50;;;13.30;46.60;;;;;;5011359;28;20178;-69
2023/04/18 00:48:28;;;;;;;4.10;1.63;;;13.40;45.80;;;;;;5013311;28;20808;-69
2023/04/18 00:50:54;;;;;;;4.87;1.77;;;13.30;46.50;;;;;;5012286;28;20198;-69
2023/04/18 00:53:20;;;;;;;4.43;1.63;;;13.60;46.60;;;;;;5013313;28;20446;-69
2023/04/18 00:55:46;;;;;;;4.00;1.20;;;13.30;46.80;;;;;;5012085;28;20432;-68
2023/04/18 00:58:12;;;;;;;4.00;1.30;;;13.40;46.10;;;;;;5012692;28;20450;-68
2023/04/18 01:00:38;;;;;;;6.10;1.70;;;13.50;46.10;;;;;;5012309;28;20459;-69
2023/04/18 01:03:05;;;;;;;4.17;1.30;;;13.50;46.00;;;;;;5011481;28;21283;-69
2023/04/18 01:05:31;;;;;;;4.57;1.80;;;13.50;45.10;;;;;;5012056;28;20176;-70
2023/04/18 01:07:59;;;;;;;4.30;1.50;;;13.40;45.40;;;;;;5012457;28;20428;-69
2023/04/18 01:10:26;;;;;;;4.33;1.53;;;13.00;45.50;;;;;;5012829;28;20464;-68
2023/04/18 01:13:12;;;;;;;4.80;1.90;;;13.10;46.40;;;;;;5001985;28;20432;-69
2023/04/18 01:15:42;;;;;;;4.40;1.50;;;13.20;47.20;;;;;;5012840;28;20492;-69
2023/04/18 01:18:09;;;;;;;4.20;1.40;;;13.20;46.40;;;;;;5012794;28;20404;-70
2023/04/18 01:20:40;;;;;;;4.43;1.47;;;13.30;45.80;;;;;;5012391;28;20436;-70
2023/04/18 01:23:06;;;;;;;4.13;1.40;;;13.10;46.90;;;;;;5007922;28;20468;-69
2023/04/18 01:25:33;;;;;;;4.37;1.57;;;13.00;47.30;;;;;;5012188;28;20432;-69
2023/04/18 01:27:59;;;;;;;4.13;1.40;;;13.30;47.50;;;;;;5012586;28;20408;-69
2023/04/18 01:30:24;;;;;;;4.87;1.53;;;13.30;45.90;;;;;;5012633;28;20424;-70
2023/04/18 01:32:50;;;;;;;4.40;1.53;;;13.20;46.10;;;;;;5008724;28;20845;-69
2023/04/18 01:35:16;;;;;;;4.50;1.80;;;13.20;45.30;;;;;;5008102;28;20186;-72
2023/04/18 01:37:43;;;;;;;5.00;1.77;;;13.20;45.20;;;;;;5012432;28;20264;-69
2023/04/18 01:40:09;;;;;;;4.70;1.70;;;13.00;45.90;;;;;;5012515;28;20836;-69
2023/04/18 01:42:35;;;;;;;4.63;1.63;;;13.00;45.60;;;;;;5011952;28;21017;-69
2023/04/18 01:45:01;;;;;;;5.93;2.40;;;12.90;45.80;;;;;;5008197;28;20467;-69
2023/04/18 01:47:27;;;;;;;10.90;3.63;;;12.90;45.90;;;;;;5012087;28;20272;-69
2023/04/18 01:49:52;;;;;;;4.27;1.50;;;13.00;46.20;;;;;;5011986;28;20194;-70
2023/04/18 01:52:18;;;;;;;4.73;1.67;;;13.00;46.40;;;;;;5007874;28;20211;-69
2023/04/18 01:54:43;;;;;;;5.30;1.77;;;13.20;46.00;;;;;;5009638;28;20201;-69
2023/04/18 01:57:09;;;;;;;5.00;2.00;;;13.10;46.20;;;;;;5010911;28;20229;-69
2023/04/18 01:59:35;;;;;;;4.57;1.70;;;12.90;46.10;;;;;;5011836;28;20620;-69
2023/04/18 02:02:00;;;;;;;7.93;2.40;;;12.90;46.00;;;;;;5011931;28;20193;-69
2023/04/18 02:04:26;;;;;;;4.30;1.50;;;12.90;45.80;;;;;;5009710;28;20262;-69
2023/04/18 02:06:52;;;;;;;4.47;1.57;;;13.10;45.40;;;;;;5011873;28;20180;-69
2023/04/18 02:09:17;;;;;;;4.90;2.00;;;13.10;44.90;;;;;;5012187;28;20189;-69
2023/04/18 02:11:43;;;;;;;4.70;1.93;;;13.00;45.00;;;;;;5010740;28;20947;-69
2023/04/18 02:14:08;;;;;;;4.10;1.30;;;13.30;45.70;;;;;;5008825;28;20188;-69
2023/04/18 02:16:34;;;;;;;4.40;1.43;;;12.90;45.40;;;;;;5010404;28;20185;-69
2023/04/18 02:19:00;;;;;;;5.50;2.23;;;12.90;45.30;;;;;;5009363;28;20688;-69
2023/04/18 02:21:29;;;;;;;4.97;1.90;;;12.90;45.00;;;;;;5012620;28;20265;-69
2023/04/18 02:23:55;;;;;;;4.70;1.67;;;13.20;45.10;;;;;;5010982;28;20419;-68
2023/04/18 02:26:20;;;;;;;4.63;1.50;;;13.20;44.80;;;;;;5009942;28;20424;-69
2023/04/18 02:28:46;;;;;;;4.63;1.90;;;13.10;44.50;;;;;;5011014;28;20452;-69
2023/04/18 02:31:13;;;;;;;4.20;1.40;;;12.80;45.10;;;;;;5011916;28;20182;-69
2023/04/18 02:33:44;;;;;;;4.93;1.80;;;12.80;45.50;;;;;;5011633;28;20189;-69
2023/04/18 02:36:11;;;;;;;4.10;1.30;;;12.90;47.30;;;;;;5009063;28;21869;-71
2023/04/18 02:38:37;;;;;;;4.37;1.57;;;13.00;45.50;;;;;;5011655;28;20440;-70
2023/04/18 02:41:02;;;;;;;4.67;1.67;;;13.00;45.60;;;;;;5011607;28;20451;-70
2023/04/18 02:43:28;;;;;;;4.20;1.40;;;13.00;45.20;;;;;;5011060;28;20198;-70
2023/04/18 02:45:53;;;;;;;6.90;2.87;;;13.00;45.00;;;;;;5009153;28;20216;-71
2023/04/18 02:48:19;;;;;;;4.63;1.60;;;13.00;45.70;;;;;;5009269;28;20653;-70
2023/04/18 02:50:45;;;;;;;4.60;1.70;;;12.80;45.30;;;;;;5011093;28;20551;-71
2023/04/18 02:53:10;;;;;;;4.20;1.30;;;12.80;46.30;;;;;;5010762;28;20653;-70
2023/04/18 02:55:36;;;;;;;4.40;1.50;;;13.20;46.80;;;;;;5010345;28;20180;-71
2023/04/18 02:58:02;;;;;;;4.40;1.60;;;12.90;46.30;;;;;;5009161;28;20186;-71
2023/04/18 03:00:27;;;;;;;5.17;2.27;;;13.10;45.70;;;;;;5011364;28;20192;-70
2023/04/18 03:02:53;;;;;;;4.43;1.60;;;12.80;45.60;;;;;;5010976;28;20207;-70
2023/04/18 03:05:19;;;;;;;4.20;1.47;;;12.70;45.90;;;;;;5011870;28;20166;-71
2023/04/18 03:07:44;;;;;;;4.97;1.70;;;12.90;45.30;;;;;;5009492;28;20297;-71
2023/04/18 03:10:10;;;;;;;4.27;1.50;;;12.90;45.30;;;;;;5010303;28;20196;-73
2023/04/18 03:12:35;;;;;;;4.50;1.60;;;13.00;45.60;;;;;;5010756;28;20283;-70
2023/04/18 03:15:01;;;;;;;4.30;1.40;;;12.80;45.60;;;;;;5011604;28;20724;-70
2023/04/18 03:17:27;;;;;;;4.57;1.77;;;12.90;45.40;;;;;;5009206;28;20217;-71
2023/04/18 03:19:53;;;;;;;4.30;1.50;;;12.70;46.10;;;;;;5007809;28;20244;-70
2023/04/18 03:22:18;;;;;;;4.40;1.60;;;12.70;45.70;;;;;;5011186;28;20197;-71
2023/04/18 03:24:44;;;;;;;5.53;1.90;;;12.90;45.00;;;;;;5011245;28;20559;-70
2023/04/18 03:27:11;;;;;;;7.23;2.90;;;12.80;45.50;;;;;;5012786;28;20712;-70
2023/04/18 03:29:37;;;;;;;5.53;1.97;;;12.90;44.90;;;;;;5010482;28;20455;-69
2023/04/18 03:32:03;;;;;;;5.27;2.13;;;12.80;45.50;;;;;;5013944;28;20436;-69
2023/04/18 03:34:29;;;;;;;4.10;1.27;;;12.80;45.20;;;;;;5014585;28;20181;-69
2023/04/18 03:36:54;;;;;;;4.10;1.40;;;12.80;45.50;;;;;;5015072;28;20451;-68
2023/04/18 03:39:20;;;;;;;4.00;1.10;;;13.00;45.40;;;;;;5009609;28;20511;-68
2023/04/18 03:41:46;;;;;;;4.33;1.57;;;13.00;44.40;;;;;;5013767;28;20246;-68
2023/04/18 03:44:11;;;;;;;4.30;1.30;;;12.70;45.80;;;;;;5013034;28;20177;-69
2023/04/18 03:46:37;;;;;;;4.40;1.53;;;12.60;45.90;;;;;;5014406;28;20178;-69
2023/04/18 03:49:03;;;;;;;4.77;1.93;;;12.80;45.90;;;;;;5012490;28;20201;-71
2023/04/18 03:51:32;;;;;;;4.23;1.47;;;13.00;45.50;;;;;;5010546;28;20431;-69
2023/04/18 03:53:58;;;;;;;4.17;1.40;;;12.70;45.80;;;;;;5008487;28;20197;-69
2023/04/18 03:56:23;;;;;;;4.20;1.33;;;12.80;45.30;;;;;;5014963;28;20467;-69
2023/04/18 03:58:49;;;;;;;4.30;1.67;;;12.90;46.00;;;;;;5014187;28;20200;-68
2023/04/18 04:01:15;;;;;;;4.30;1.50;;;12.60;45.70;;;;;;5011676;28;20903;-70
2023/04/18 04:03:40;;;;;;;4.70;1.67;;;12.70;46.10;;;;;;5013887;28;20216;-70
2023/04/18 04:06:06;;;;;;;4.23;1.60;;;12.80;46.20;;;;;;5014859;28;20173;-70
2023/04/18 04:08:32;;;;;;;4.47;1.70;;;12.40;46.00;;;;;;5014479;28;20193;-70
2023/04/18 04:10:57;;;;;;;4.70;1.97;;;12.60;46.10;;;;;;5012697;28;20548;-70
2023/04/18 04:13:23;;;;;;;4.60;1.57;;;12.40;46.70;;;;;;5013306;28;20478;-70
2023/04/18 04:15:49;;;;;;;6.47;1.80;;;12.50;46.30;;;;;;5015210;28;20188;-70
2023/04/18 04:18:15;;;;;;;4.83;1.83;;;12.80;46.60;;;;;;5013367;28;20275;-70
2023/04/18 04:20:40;;;;;;;9.80;1.83;;;13.00;46.70;;;;;;5013101;28;20440;-70
2023/04/18 04:23:06;;;;;;;5.03;2.03;;;12.50;46.40;;;;;;5003721;28;20291;-71
2023/04/18 04:25:32;;;;;;;4.50;1.63;;;12.80;45.60;;;;;;5013880;28;20178;-71
2023/04/18 04:28:00;;;;;;;4.13;1.30;;;12.40;46.50;;;;;;5013422;28;20174;-71
2023/04/18 04:30:25;;;;;;;5.10;1.93;;;12.40;46.30;;;;;;5013505;28;20436;-71
2023/04/18 04:32:52;;;;;;;5.23;2.10;;;12.40;46.30;;;;;;5012060;28;20431;-69
2023/04/18 04:35:17;;;;;;;4.13;1.30;;;12.60;45.90;;;;;;5013090;28;20231;-68
2023/04/18 04:37:43;;;;;;;5.73;2.13;;;12.40;46.30;;;;;;5013231;28;20412;-69
2023/04/18 04:40:09;;;;;;;4.30;1.40;;;12.90;46.40;;;;;;5013578;28;20201;-69
2023/04/18 04:42:35;;;;;;;7.50;1.80;;;12.70;45.00;;;;;;5010807;28;20459;-69
2023/04/18 04:45:02;;;;;;;5.80;2.03;;;12.70;45.40;;;;;;5011932;28;21010;-69
2023/04/18 04:47:28;;;;;;;4.20;1.40;;;12.70;45.10;;;;;;5013296;28;20182;-69
2023/04/18 04:49:53;;;;;;;5.03;1.77;;;13.00;44.70;;;;;;5013280;28;20446;-70
2023/04/18 04:52:19;;;;;;;4.20;1.57;;;12.90;44.90;;;;;;5012302;28;20189;-70
2023/04/18 04:54:45;;;;;;;4.10;1.30;;;12.60;45.10;;;;;;5011749;28;20280;-70
2023/04/18 04:57:11;;;;;;;5.80;1.97;;;12.80;45.50;;;;;;5013115;28;20173;-70
2023/04/18 04:59:36;;;;;;;4.03;1.23;;;12.70;45.10;;;;;;5012825;28;20780;-70
2023/04/18 05:02:02;;;;;;;6.33;1.83;;;12.60;46.70;;;;;;5010473;28;20197;-72
2023/04/18 05:04:28;;;;;;;4.47;1.67;;;12.40;46.00;;;;;;5009039;28;20185;-70
2023/04/18 05:06:53;;;;;;;4.90;1.73;;;12.50;45.60;;;;;;5012845;28;20180;-70
2023/04/18 05:09:19;;;;;;;3.93;1.20;;;12.70;44.90;;;;;;5010803;28;20688;-70
2023/04/18 05:11:46;;;;;;;4.67;1.60;;;12.70;44.40;;;;;;5010194;28;20275;-70
2023/04/18 05:14:11;;;;;;;4.17;1.50;;;12.50;45.20;;;;;;5011219;28;20307;-70
2023/04/18 05:16:37;;;;;;;4.20;1.50;;;12.50;45.70;;;;;;5011241;28;20894;-70
2023/04/18 05:19:03;;;;;;;4.87;1.80;;;12.60;45.80;;;;;;5012060;28;20213;-70
2023/04/18 05:21:28;;;;;;;4.00;1.50;;;12.80;46.30;;;;;;5012750;28;20543;-69
2023/04/18 05:23:55;;;;;;;4.87;1.97;;;12.80;45.70;;;;;;5010281;28;20575;-69
2023/04/18 05:26:21;;;;;;;4.73;1.83;;;13.10;44.80;;;;;;5012425;28;20518;-70
2023/04/18 05:28:47;;;;;;;5.50;2.23;;;12.90;45.00;;;;;;5012422;28;21014;-70
2023/04/18 05:31:12;;;;;;;4.10;1.50;;;13.00;45.30;;;;;;5012843;28;20500;-70
2023/04/18 05:33:38;;;;;;;4.07;1.60;;;12.90;45.30;;;;;;5011138;28;20438;-70
2023/04/18 05:36:04;;;;;;;3.80;1.40;;;12.80;45.90;;;;;;5004223;28;20271;-70
2023/04/18 05:38:29;;;;;;;5.00;2.17;;;12.90;44.60;;;;;;5012057;28;20177;-70
2023/04/18 05:40:55;;;;;;;4.00;1.40;;;13.20;44.90;;;;;;5011343;28;20425;-70
2023/04/18 05:43:22;;;;;;;4.00;1.80;;;13.50;44.20;;;;;;5002901;28;20201;-70
2023/04/18 05:45:47;;;;;;;3.90;1.60;;;12.70;45.40;;;;;;5012065;28;20907;-70
2023/04/18 05:48:13;;;;;;;4.50;2.13;;;12.90;45.00;;;;;;5012078;28;20419;-70
2023/04/18 05:50:39;;;;;;;4.53;1.83;;;13.00;43.70;;;;;;5010767;28;20170;-71
2023/04/18 05:53:05;;;;;;;3.57;1.37;;;12.80;44.30;;;;;;5009861;28;20196;-71
2023/04/18 05:55:30;;;;;;;3.70;1.43;;;12.90;44.50;;;;;;5011869;28;20495;-71
2023/04/18 05:57:56;;;;;;;3.80;1.50;;;12.90;43.80;;;;;;5011434;28;20714;-71
2023/04/18 06:00:22;;;;;;;3.33;1.20;;;12.90;44.50;;;;;;5011933;28;20247;-68
2023/04/18 06:02:49;;;;;;;4.23;1.63;;;13.10;44.40;;;;;;5008066;28;20201;-68
2023/04/18 06:05:15;;;;;;;3.40;1.20;;;13.00;43.90;;;;;;5007711;28;20436;-67
2023/04/18 06:07:40;;;;;;;4.30;1.80;;;12.90;45.20;;;;;;5008487;28;20427;-67
2023/04/18 06:10:09;;;;;;;4.10;1.50;;;12.90;44.60;;;;;;5010972;28;20197;-67
2023/04/18 06:12:36;;;;;;;3.47;1.37;;;13.00;44.70;;;;;;5008116;28;20184;-68
2023/04/18 06:15:02;;;;;;;5.50;2.30;;;13.00;43.60;;;;;;5003364;28;20527;-68
2023/04/18 06:17:27;;;;;;;3.40;1.30;;;13.00;43.30;;;;;;5011645;28;20946;-67
2023/04/18 06:19:53;;;;;;;4.03;1.90;;;12.90;44.00;;;;;;5010044;28;20475;-67
2023/04/18 06:22:19;;;;;;;3.77;1.60;;;13.10;43.50;;;;;;5011798;28;20193;-67
2023/04/18 06:24:44;;;;;;;3.30;1.30;;;13.00;44.10;;;;;;5009807;28;20181;-67
2023/04/18 06:27:10;;;;;;;4.70;2.43;;;13.00;43.90;;;;;;5010888;28;20181;-67
2023/04/18 06:29:36;;;;;;;4.80;1.80;;;13.00;44.80;;;;;;5011196;28;20227;-67
2023/04/18 06:32:02;;;;;;;5.00;1.77;;;12.90;44.80;;;;;;5011939;28;20595;-67
2023/04/18 06:34:28;;;;;;;3.57;1.63;;;13.00;44.40;;;;;;5023972;23;21004;-73
2023/04/18 06:36:54;;;;;;;4.20;2.17;;;13.10;43.20;;;;;;5012427;28;20424;-74
2023/04/18 06:39:20;;;;;;;3.37;1.37;;;13.10;43.30;;;;;;5011413;28;20176;-74
2023/04/18 06:41:46;;;;;;;3.57;1.87;;;13.20;44.50;;;;;;5011362;28;20558;-72
2023/04/18 06:44:12;;;;;;;4.20;1.90;;;12.80;43.90;;;;;;5011267;28;20296;-74
2023/04/18 06:46:37;;;;;;;5.03;2.30;;;12.90;44.40;;;;;;5014724;28;20463;-73
2023/04/18 06:49:03;;;;;;;4.53;1.90;;;12.70;43.80;;;;;;5012906;28;20550;-73
2023/04/18 06:51:28;;;;;;;3.57;1.70;;;12.70;45.00;;;;;;5011380;28;20170;-74
2023/04/18 06:53:54;;;;;;;3.40;1.50;;;12.70;44.60;;;;;;5010226;28;20272;-74
2023/04/18 06:56:20;;;;;;;4.27;2.23;;;12.90;45.70;;;;;;5009610;28;20208;-73
2023/04/18 06:58:46;;;;;;;3.40;1.60;;;13.30;42.90;;;;;;5016402;28;20196;-74
2023/04/18 07:01:12;;;;;;;3.10;1.40;;;13.30;42.40;;;;;;5013064;28;20495;-72
2023/04/18 07:03:38;;;;;;;3.60;1.80;;;13.30;42.10;;;;;;5014759;28;20566;-74
2023/04/18 07:06:04;;;;;;;3.37;1.70;;;13.00;43.70;;;;;;5011977;28;20173;-71
2023/04/18 07:08:30;;;;;;;3.20;1.63;;;12.70;43.60;;;;;;5013127;28;20656;-73
2023/04/18 07:10:55;;;;;;;5.13;2.47;;;12.70;44.30;;;;;;5012583;28;20463;-73
2023/04/18 07:13:21;;;;;;;3.23;1.67;;;13.00;45.20;;;;;;5010264;28;20185;-73
2023/04/18 07:15:47;;;;;;;3.03;1.47;;;13.30;44.30;;;;;;5012821;28;20192;-74
2023/04/18 07:18:12;;;;;;;3.93;2.33;;;13.20;43.60;;;;;;5014472;28;20191;-73
2023/04/18 07:20:38;;;;;;;4.80;2.07;;;13.40;44.10;;;;;;5015118;28;20185;-73
2023/04/18 07:23:03;;;;;;;3.00;1.63;;;13.50;43.50;;;;;;5026320;28;20209;-73
2023/04/18 07:25:29;;;;;;;3.40;1.80;;;13.70;42.80;;;;;;5014122;28;20198;-73
2023/04/18 07:27:55;;;;;;;3.47;1.80;;;13.70;40.70;;;;;;5014867;28;20282;-73
2023/04/18 07:30:20;;;;;;;4.80;2.23;;;13.30;41.30;;;;;;5014966;28;20173;-73
2023/04/18 07:32:46;;;;;;;3.43;1.97;;;13.50;43.50;;;;;;5013018;28;20188;-74
2023/04/18 07:35:12;;;;;;;2.90;1.50;;;14.00;42.30;;;;;;5010690;28;20685;-76
2023/04/18 07:37:38;;;;;;;3.53;1.93;;;14.00;41.30;;;;;;5014394;28;20437;-76
2023/04/18 07:40:04;;;;;;;3.37;1.70;;;14.20;40.70;;;;;;5012943;28;20190;-74
2023/04/18 07:42:30;;;;;;;3.37;2.13;;;14.10;40.20;;;;;;5014977;28;20213;-74
2023/04/18 07:44:57;;;;;;;3.27;1.70;;;13.90;40.80;;;;;;5012189;28;20535;-74
2023/04/18 07:47:24;;;;;;;3.07;1.90;;;13.90;40.90;;;;;;5014287;28;20268;-73
2023/04/18 07:49:49;;;;;;;5.43;2.17;;;14.10;39.90;;;;;;5013607;28;20531;-74
2023/04/18 07:52:15;;;;;;;2.80;1.50;;;14.20;39.80;;;;;;5012407;28;20999;-73
2023/04/18 07:54:41;;;;;;;3.10;1.80;;;13.80;39.40;;;;;;5005807;28;20479;-73
2023/04/18 07:57:06;;;;;;;3.07;1.93;;;13.60;41.70;;;;;;5013041;28;20276;-73
2023/04/18 07:59:32;;;;;;;3.70;2.10;;;14.00;40.60;;;;;;5014147;28;20555;-72
2023/04/18 08:01:57;;;;;;;5.80;2.10;;;13.80;41.30;;;;;;5014465;28;20243;-73
2023/04/18 08:04:23;;;;;;;3.80;1.97;;;13.60;41.40;;;;;;5013778;28;20190;-73
2023/04/18 08:06:49;;;;;;;2.97;1.67;;;13.50;42.70;;;;;;5009526;28;20190;-73
2023/04/18 08:09:14;;;;;;;3.20;1.70;;;13.60;42.40;;;;;;4994499;28;20196;-73
2023/04/18 08:11:41;;;;;;;3.50;1.90;;;13.80;41.10;;;;;;5010670;28;20231;-73
2023/04/18 08:14:07;;;;;;;2.70;1.53;;;13.70;41.00;;;;;;5013205;28;20213;-74
2023/04/18 08:16:32;;;;;;;2.60;1.40;;;13.80;41.50;;;;;;5014594;28;20412;-73
2023/04/18 08:18:58;;;;;;;2.90;1.80;;;13.70;41.30;;;;;;5014225;28;20173;-72
2023/04/18 08:21:25;;;;;;;2.87;1.67;;;13.90;42.10;;;;;;5014109;28;20320;-74
2023/04/18 08:23:50;;;;;;;2.50;1.70;;;14.00;41.60;;;;;;5011993;28;20212;-73
2023/04/18 08:26:16;;;;;;;3.17;1.80;;;14.10;41.10;;;;;;5014163;28;20425;-73
2023/04/18 08:28:42;;;;;;;3.47;2.17;;;14.10;40.90;;;;;;5014066;28;20253;-73
2023/04/18 08:31:11;;;;;;;3.40;1.97;;;14.20;40.40;;;;;;5014271;28;20174;-73
2023/04/18 08:33:37;;;;;;;3.10;1.67;;;14.10;41.00;;;;;;5013212;28;20841;-73
2023/04/18 08:36:02;;;;;;;3.27;1.83;;;14.30;41.00;;;;;;5013553;28;20420;-72
2023/04/18 08:38:28;;;;;;;2.70;1.53;;;14.40;40.10;;;;;;5013954;28;20179;-73
2023/04/18 08:40:54;;;;;;;3.90;2.63;;;14.50;41.70;;;;;;5013093;28;20188;-77
2023/04/18 08:43:19;;;;;;;3.70;2.57;;;14.70;39.40;;;;;;5012537;28;20243;-73
2023/04/18 08:45:45;;;;;;;2.93;1.73;;;14.80;39.10;;;;;;5015383;28;20239;-72
2023/04/18 08:48:15;;;;;;;2.70;1.70;;;14.80;38.20;;;;;;5011463;28;20190;-73
2023/04/18 08:50:41;;;;;;;3.33;2.30;;;14.90;38.30;;;;;;5011522;28;20182;-74
2023/04/18 08:53:08;;;;;;;3.17;1.53;;;15.20;38.00;;;;;;5013933;28;20517;-73
2023/04/18 08:55:34;;;;;;;4.00;2.33;;;15.30;39.00;;;;;;5014266;28;20426;-73
2023/04/18 08:58:00;;;;;;;3.00;1.90;;;15.30;38.00;;;;;;5013465;28;20412;-74
2023/04/18 09:00:28;;;;;;;2.80;2.17;;;15.40;38.00;;;;;;5013388;28;20423;-73
2023/04/18 09:02:55;;;;;;;2.80;1.87;;;15.30;37.30;;;;;;5014219;28;20463;-74
2023/04/18 09:05:23;;;;;;;4.63;3.30;;;15.40;37.80;;;;;;5020501;28;20575;-74
2023/04/18 09:07:50;;;;;;;3.30;2.10;;;15.50;38.40;;;;;;5000253;28;20422;-74
2023/04/18 09:10:25;;;;;;;2.37;1.40;;;15.70;37.70;;;;;;4993684;28;20822;-74
2023/04/18 09:12:50;;;;;;;3.00;2.03;;;15.80;36.90;;;;;;4994828;28;20423;-74
2023/04/18 09:15:22;;;;;;;3.23;2.03;;;15.90;36.90;;;;;;5014830;28;20463;-74
2023/04/18 09:17:51;;;;;;;2.57;1.67;;;15.90;36.70;;;;;;5017460;28;20223;-74
2023/04/18 09:20:34;;;;;;;5.20;2.27;;;15.70;37.70;;;;;;5013441;28;20412;-74
2023/04/18 09:23:02;;;;;;;3.47;2.50;;;15.60;37.60;;;;;;5012688;28;20451;-76
2023/04/18 09:25:37;;;;;;;4.00;2.53;;;15.50;38.60;;;;;;5015041;28;20468;-74
2023/04/18 09:28:04;;;;;;;5.00;2.57;;;15.80;36.80;;;;;;5012898;28;20433;-74
2023/04/18 09:30:31;;;;;;;5.40;2.60;;;16.00;38.00;;;;;;5012656;28;20434;-74
2023/04/18 09:33:02;;;;;;;3.17;1.93;;;16.20;36.40;;;;;;5012857;28;20424;-74
2023/04/18 09:35:27;;;;;;;2.83;2.00;;;16.10;36.20;;;;;;5010667;28;20618;-74
2023/04/18 09:37:53;;;;;;;2.33;1.50;;;16.10;35.80;;;;;;5018876;28;20506;-74
2023/04/18 09:40:20;;;;;;;3.70;2.47;;;16.00;36.70;;;;;;5012783;28;20524;-74
2023/04/18 09:42:47;;;;;;;5.80;2.20;;;16.00;37.10;;;;;;5012315;28;20447;-75
2023/04/18 09:45:13;;;;;;;2.50;1.83;;;16.30;36.10;;;;;;5011391;28;20851;-74
2023/04/18 09:47:38;;;;;;;4.00;2.27;;;16.50;36.20;;;;;;5019250;28;20440;-74
2023/04/18 09:50:06;;;;;;;2.93;2.20;;;16.60;37.10;;;;;;5012394;28;20423;-74
2023/04/18 09:52:40;;;;;;;2.73;1.83;;;16.50;34.60;;;;;;5012093;28;20178;-74
2023/04/18 09:55:08;;;;;;;2.37;1.77;;;16.50;35.10;;;;;;5012409;28;20431;-75
2023/04/18 09:57:35;;;;;;;3.17;1.70;;;16.40;35.00;;;;;;5012565;28;20501;-74
2023/04/18 10:00:26;;;;;;;2.60;2.00;;;16.40;35.30;;;;;;5012239;28;20785;-74
2023/04/18 10:02:57;;;;;;;2.70;2.10;;;16.70;35.70;;;;;;5011840;28;20459;-74
2023/04/18 10:05:32;;;;;;;2.30;1.77;;;16.80;35.10;;;;;;5012436;28;20456;-75
2023/04/18 10:07:58;;;;;;;2.10;1.53;;;17.30;35.60;;;;;;5009221;28;20523;-74
2023/04/18 10:10:24;;;;;;;4.90;2.27;;;17.60;33.90;;;;;;5013119;28;20475;-74
2023/04/18 10:12:53;;;;;;;4.77;2.50;;;17.90;33.00;;;;;;5004579;28;20559;-75
2023/04/18 10:15:21;;;;;;;2.40;1.90;;;17.00;33.40;;;;;;5010447;28;20460;-75
2023/04/18 10:17:55;;;;;;;5.97;2.80;;;16.50;33.20;;;;;;5010621;28;20455;-74
2023/04/18 10:20:24;;;;;;;2.90;2.13;;;16.80;32.40;;;;;;5023571;28;20442;-74
2023/04/18 10:22:50;;;;;;;2.40;1.70;;;17.30;32.50;;;;;;5011168;28;20494;-74
2023/04/18 10:25:38;;;;;;;4.27;2.10;;;17.50;30.90;;;;;;5008475;28;20463;-74
2023/04/18 10:28:05;;;;;;;5.07;2.43;;;17.20;30.60;;;;;;5007730;28;20459;-73
2023/04/18 10:30:40;;;;;;;3.43;2.33;;;17.60;31.00;;;;;;5015054;28;20429;-74
2023/04/18 10:33:36;;;;;;;2.67;1.90;;;17.80;29.60;;;;;;5011470;28;20431;-73
2023/04/18 10:36:08;;;;;;;5.97;2.43;;;17.60;30.10;;;;;;4998969;28;20445;-73
2023/04/18 10:38:43;;;;;;;2.33;1.83;;;17.70;31.40;;;;;;5009823;28;20425;-73
2023/04/18 10:41:29;;;;;;;2.17;1.50;;;18.10;29.70;;;;;;5013532;28;20452;-73
2023/04/18 10:44:10;;;;;;;3.27;2.10;;;18.10;29.50;;;;;;5008765;28;20488;-74
2023/04/18 10:46:38;;;;;;;2.33;1.70;;;18.50;29.00;;;;;;5011869;28;20399;-74
2023/04/18 10:49:13;;;;;;;2.60;1.83;;;18.10;29.00;;;;;;5011830;28;20459;-74
2023/04/18 10:51:39;;;;;;;2.30;1.60;;;17.60;30.00;;;;;;5015189;28;20453;-74
2023/04/18 10:54:08;;;;;;;3.00;2.27;;;17.60;30.20;;;;;;5018913;28;20454;-73
2023/04/18 10:56:34;;;;;;;2.93;2.03;;;17.10;30.60;;;;;;5010385;28;20647;-74
2023/04/18 10:59:02;;;;;;;2.20;1.50;;;16.80;30.60;;;;;;5014512;28;20510;-74
2023/04/18 11:01:31;;;;;;;2.67;1.87;;;16.30;32.60;;;;;;5010713;28;20427;-74
2023/04/18 11:03:57;;;;;;;3.20;2.13;;;16.30;32.20;;;;;;5010487;28;20533;-73
2023/04/18 11:06:26;;;;;;;2.40;1.80;;;16.20;32.10;;;;;;5011365;28;20395;-72
2023/04/18 11:08:52;;;;;;;2.83;1.83;;;16.50;32.50;;;;;;5019640;28;20488;-73
2023/04/18 11:11:17;;;;;;;2.80;2.17;;;16.60;31.70;;;;;;5014582;28;20413;-74
2023/04/18 11:13:55;;;;;;;3.17;2.27;;;16.90;31.10;;;;;;5008980;28;20455;-73
2023/04/18 11:16:33;;;;;;;4.47;1.90;;;16.90;31.10;;;;;;5011440;28;20169;-73
2023/04/18 11:18:59;;;;;;;2.97;2.13;;;16.30;31.50;;;;;;5009183;28;20422;-72
2023/04/18 11:21:28;;;;;;;4.00;2.20;;;16.10;33.00;;;;;;5012234;28;20504;-73
2023/04/18 11:23:55;;;;;;;2.53;1.87;;;15.90;34.60;;;;;;5009437;28;20464;-75
2023/04/18 11:26:27;;;;;;;4.80;1.90;;;16.60;32.00;;;;;;5011312;28;20482;-74
2023/04/18 11:28:56;;;;;;;2.20;1.50;;;16.80;32.20;;;;;;5009689;28;20429;-74
2023/04/18 11:31:23;;;;;;;3.43;2.00;;;16.30;32.40;;;;;;5011590;28;20474;-74
2023/04/18 11:33:50;;;;;;;3.27;2.17;;;16.30;31.20;;;;;;5006804;28;20560;-76
2023/04/18 11:36:16;;;;;;;2.63;1.60;;;16.40;31.00;;;;;;5010684;28;20430;-74
2023/04/18 11:38:41;;;;;;;3.57;2.07;;;16.70;30.40;;;;;;5008063;28;20498;-74
2023/04/18 11:41:14;;;;;;;2.63;2.00;;;16.50;31.10;;;;;;5011211;28;20486;-74
2023/04/18 11:43:44;;;;;;;3.97;2.20;;;16.90;30.40;;;;;;5008536;28;20701;-75
2023/04/18 11:46:14;;;;;;;2.67;1.60;;;17.10;30.60;;;;;;5011180;28;20412;-75
2023/04/18 11:48:44;;;;;;;3.13;2.13;;;17.50;30.10;;;;;;5012212;28;20540;-74
2023/04/18 11:51:37;;;;;;;2.87;2.10;;;17.50;28.90;;;;;;5015363;28;20560;-74
2023/04/18 11:54:03;;;;;;;3.10;2.03;;;17.30;29.30;;;;;;5013688;28;20431;-75
2023/04/18 11:56:28;;;;;;;2.40;1.60;;;18.80;28.20;;;;;;5019534;28;20851;-74
2023/04/18 11:58:55;;;;;;;2.40;1.70;;;19.70;26.40;;;;;;5013221;28;20435;-74
2023/04/18 12:01:22;;;;;;;2.23;1.60;;;19.80;25.20;;;;;;5014563;28;20653;-75
2023/04/18 12:04:05;;;;;;;4.00;2.13;;;19.90;25.30;;;;;;5011924;28;20470;-75
2023/04/18 12:06:51;;;;;;;2.60;1.70;;;19.40;27.20;;;;;;5010475;28;20859;-75
2023/04/18 12:09:18;;;;;;;15.70;1.93;;;18.80;27.80;;;;;;5022432;28;20434;-75
2023/04/18 12:11:55;;;;;;;2.10;1.43;;;18.60;26.50;;;;;;5011994;28;20423;-75
2023/04/18 12:14:21;;;;;;;2.47;1.70;;;18.50;27.00;;;;;;5012088;28;20446;-74
2023/04/18 12:16:50;;;;;;;2.57;1.70;;;18.60;27.20;;;;;;5013185;28;20407;-75
2023/04/18 12:19:16;;;;;;;2.77;1.93;;;18.50;27.90;;;;;;5012697;28;20523;-75
2023/04/18 12:21:55;;;;;;;4.00;2.50;;;18.30;27.50;;;;;;5014094;28;20535;-75
2023/04/18 12:24:23;;;;;;;2.10;1.30;;;18.30;28.70;;;;;;5013784;28;20192;-75
2023/04/18 12:26:49;;;;;;;2.10;1.30;;;18.70;29.30;;;;;;5014852;28;20458;-75
2023/04/18 12:29:16;;;;;;;3.30;2.33;;;18.30;28.80;;;;;;5021376;28;20920;-75
2023/04/18 12:31:41;;;;;;;2.57;2.03;;;17.90;30.00;;;;;;5004428;28;20433;-75
2023/04/18 12:34:07;;;;;;;2.73;1.97;;;18.20;28.60;;;;;;5009467;28;20465;-76
2023/04/18 12:36:33;;;;;;;2.40;1.60;;;18.20;28.90;;;;;;5009933;28;20210;-75
2023/04/18 12:38:58;;;;;;;16.33;1.87;;;18.40;28.50;;;;;;5012089;28;20179;-75
2023/04/18 12:41:24;;;;;;;2.97;1.93;;;18.40;28.00;;;;;;5019946;28;20183;-78
2023/04/18 12:43:50;;;;;;;2.10;1.40;;;18.30;28.20;;;;;;5035425;22;20224;-71
2023/04/18 12:46:15;;;;;;;3.87;2.37;;;18.00;28.10;;;;;;5032323;28;20252;-68